Time,TemperatureF,DewpointF,PressureIn,WindDirection,WindDirectionDegrees,WindSpeedMPH,WindSpeedGustMPH,Humidity,HourlyPrecipIn,Conditions,Clouds,dailyrainin,SoftwareType,DateUTC
2013-03-13 03:24:00,31.6,29.8,29.98,WSW,243,5.0,5.0,93,0.00,,,0.00,Wunderground v.1.15,2013-03-13 07:24:00,
2013-03-13 03:27:00,31.6,29.8,29.98,SW,229,4.0,6.0,93,0.00,,,0.00,Wunderground v.1.15,2013-03-13 07:27:00,
2013-03-13 03:28:00,31.6,29.8,29.98,WSW,248,4.0,6.0,93,0.00,,,0.00,Wunderground v.1.15,2013-03-13 07:28:00,
2013-03-13 03:29:00,31.6,29.8,29.98,WSW,249,4.0,6.0,93,0.00,,,0.00,Wunderground v.1.15,2013-03-13 07:29:00,
2013-03-13 03:35:00,31.6,29.8,29.98,SW,232,4.0,7.0,93,0.00,,,0.00,Wunderground v.1.15,2013-03-13 07:35:00,
2013-03-13 03:40:00,31.7,29.9,29.98,WSW,256,4.0,7.0,93,0.00,,,0.00,Wunderground v.1.15,2013-03-13 07:40:00,
2013-03-13 03:47:00,31.7,29.9,29.98,SW,229,4.0,7.0,93,0.00,,,0.00,Wunderground v.1.15,2013-03-13 07:47:00,
2013-03-13 03:53:00,31.6,29.5,29.97,WSW,255,5.0,8.0,92,0.00,,,0.00,Wunderground v.1.15,2013-03-13 07:53:00,
2013-03-13 03:58:00,31.5,29.4,29.97,West,274,7.0,12.0,92,0.00,,,0.00,Wunderground v.1.15,2013-03-13 07:58:00,
2013-03-13 04:03:00,31.3,29.0,29.98,SW,236,8.0,11.0,91,0.00,,,0.00,Wunderground v.1.15,2013-03-13 08:03:00,
2013-03-13 04:09:00,31.1,28.5,29.98,WNW,292,6.0,11.0,90,0.00,,,0.00,Wunderground v.1.15,2013-03-13 08:09:00,
2013-03-13 04:14:00,30.9,28.3,29.98,West,266,5.0,6.0,90,0.00,,,0.00,Wunderground v.1.15,2013-03-13 08:14:00,
2013-03-13 04:20:00,30.7,27.8,29.97,SW,234,5.0,5.0,89,0.00,,,0.00,Wunderground v.1.15,2013-03-13 08:20:00,
2013-03-13 04:25:00,30.8,27.9,29.97,WSW,238,5.0,5.0,89,0.00,,,0.00,Wunderground v.1.15,2013-03-13 08:25:00,
2013-03-13 04:31:00,30.8,27.9,29.97,WSW,248,4.0,5.0,89,0.00,,,0.00,Wunderground v.1.15,2013-03-13 08:31:00,
2013-03-13 04:37:00,30.8,27.9,29.97,WSW,254,4.0,6.0,89,0.00,,,0.00,Wunderground v.1.15,2013-03-13 08:37:00,
2013-03-13 04:43:00,30.8,27.9,29.97,West,262,4.0,7.0,89,0.00,,,0.00,Wunderground v.1.15,2013-03-13 08:43:00,
2013-03-13 04:49:00,30.7,27.8,29.97,WSW,244,5.0,10.0,89,0.00,,,0.00,Wunderground v.1.15,2013-03-13 08:49:00,
2013-03-13 04:54:00,30.7,27.8,29.97,WSW,255,5.0,6.0,89,0.00,,,0.00,Wunderground v.1.15,2013-03-13 08:54:00,
2013-03-13 05:00:00,30.7,27.8,29.97,WSW,249,5.0,6.0,89,0.00,,,0.00,Wunderground v.1.15,2013-03-13 09:00:00,
2013-03-13 05:05:00,30.7,28.1,29.97,SW,234,6.0,6.0,90,0.00,,,0.00,Wunderground v.1.15,2013-03-13 09:05:00,
2013-03-13 05:11:00,30.7,28.1,29.97,WSW,238,5.0,5.0,90,0.00,,,0.00,Wunderground v.1.15,2013-03-13 09:11:00,
2013-03-13 05:17:00,30.7,28.1,29.96,WSW,246,5.0,9.0,90,0.00,,,0.00,Wunderground v.1.15,2013-03-13 09:17:00,
2013-03-13 05:23:00,30.6,28.0,29.96,WSW,240,5.0,10.0,90,0.00,,,0.00,Wunderground v.1.15,2013-03-13 09:23:00,
2013-03-13 05:28:00,30.6,28.0,29.96,WSW,248,5.0,10.0,90,0.00,,,0.00,Wunderground v.1.15,2013-03-13 09:28:00,
2013-03-13 05:33:00,30.6,28.0,29.97,WSW,242,5.0,6.0,90,0.00,,,0.00,Wunderground v.1.15,2013-03-13 09:33:00,
2013-03-13 05:38:00,30.6,28.0,29.96,WSW,243,5.0,10.0,90,0.00,,,0.00,Wunderground v.1.15,2013-03-13 09:38:00,
2013-03-13 05:44:00,30.5,27.9,29.96,SW,236,5.0,7.0,90,0.00,,,0.00,Wunderground v.1.15,2013-03-13 09:44:00,
2013-03-13 05:49:00,30.5,27.9,29.96,WSW,238,5.0,10.0,90,0.00,,,0.00,Wunderground v.1.15,2013-03-13 09:49:00,
2013-03-13 05:54:00,30.5,28.2,29.96,WSW,255,6.0,7.0,91,0.00,,,0.00,Wunderground v.1.15,2013-03-13 09:54:00,
2013-03-13 06:00:00,30.5,28.2,29.96,WSW,244,5.0,5.0,91,0.00,,,0.00,Wunderground v.1.15,2013-03-13 10:00:00,
2013-03-13 06:05:00,30.5,28.2,29.96,WSW,245,5.0,9.0,91,0.00,,,0.00,Wunderground v.1.15,2013-03-13 10:05:00,
2013-03-13 06:10:00,30.5,27.9,29.96,WSW,248,6.0,7.0,90,0.00,,,0.00,Wunderground v.1.15,2013-03-13 10:10:00,
2013-03-13 06:16:00,30.6,28.0,29.96,WSW,250,7.0,12.0,90,0.00,,,0.00,Wunderground v.1.15,2013-03-13 10:16:00,
2013-03-13 06:21:00,30.6,28.0,29.96,SW,226,6.0,7.0,90,0.00,,,0.00,Wunderground v.1.15,2013-03-13 10:21:00,
2013-03-13 06:26:00,30.6,28.0,29.96,WSW,244,6.0,8.0,90,0.00,,,0.00,Wunderground v.1.15,2013-03-13 10:26:00,
2013-03-13 06:32:00,30.6,28.0,29.96,WSW,249,5.0,10.0,90,0.00,,,0.00,Wunderground v.1.15,2013-03-13 10:32:00,
2013-03-13 06:37:00,30.6,28.0,29.96,WSW,253,6.0,13.0,90,0.00,,,0.00,Wunderground v.1.15,2013-03-13 10:37:00,
2013-03-13 06:42:00,30.5,27.9,29.96,WSW,238,8.0,11.0,90,0.00,,,0.00,Wunderground v.1.15,2013-03-13 10:42:00,
2013-03-13 06:48:00,30.5,27.9,29.96,WSW,244,7.0,11.0,90,0.00,,,0.00,Wunderground v.1.15,2013-03-13 10:48:00,
2013-03-13 06:54:00,30.5,27.6,29.97,West,268,4.0,6.0,89,0.00,,,0.00,Wunderground v.1.15,2013-03-13 10:54:00,
2013-03-13 06:59:00,30.5,27.6,29.97,SW,235,4.0,6.0,89,0.00,,,0.00,Wunderground v.1.15,2013-03-13 10:59:00,
2013-03-13 07:04:00,30.5,27.6,29.96,WSW,251,3.0,6.0,89,0.00,,,0.00,Wunderground v.1.15,2013-03-13 11:04:00,
2013-03-13 07:10:00,30.5,27.6,29.97,WNW,293,5.0,5.0,89,0.00,,,0.00,Wunderground v.1.15,2013-03-13 11:10:00,
2013-03-13 07:15:00,30.4,27.3,29.97,West,275,7.0,9.0,88,0.00,,,0.00,Wunderground v.1.15,2013-03-13 11:15:00,
2013-03-13 07:22:00,30.3,26.6,29.97,WNW,298,8.0,16.0,86,0.00,,,0.00,Wunderground v.1.15,2013-03-13 11:22:00,
2013-03-13 07:28:00,30.1,26.4,29.97,West,279,9.0,16.0,86,0.00,,,0.00,Wunderground v.1.15,2013-03-13 11:28:00,
2013-03-13 07:33:00,30.0,26.3,29.98,NW,305,9.0,10.0,86,0.00,,,0.00,Wunderground v.1.15,2013-03-13 11:33:00,
2013-03-13 07:39:00,29.9,26.2,29.98,WNW,296,8.0,16.0,86,0.00,,,0.00,Wunderground v.1.15,2013-03-13 11:39:00,
2013-03-13 07:44:00,29.7,26.0,29.98,WNW,286,9.0,12.0,86,0.00,,,0.00,Wunderground v.1.15,2013-03-13 11:44:00,
2013-03-13 07:50:00,29.2,25.5,29.98,WNW,294,9.0,9.0,86,0.00,,,0.00,Wunderground v.1.15,2013-03-13 11:50:00,
2013-03-13 07:55:00,28.9,25.0,29.98,WNW,294,8.0,14.0,85,0.00,,,0.00,Wunderground v.1.15,2013-03-13 11:55:00,
2013-03-13 08:00:00,28.7,24.8,29.99,WNW,296,6.0,7.0,85,0.00,,,0.00,Wunderground v.1.15,2013-03-13 12:00:00,
2013-03-13 08:07:00,28.7,25.0,29.99,WNW,285,5.0,11.0,86,0.00,,,0.00,Wunderground v.1.15,2013-03-13 12:07:00,
2013-03-13 08:13:00,28.8,25.1,30.00,NNW,333,6.0,9.0,86,0.00,,,0.00,Wunderground v.1.15,2013-03-13 12:13:00,
2013-03-13 08:18:00,28.6,24.9,30.00,West,281,7.0,9.0,86,0.00,,,0.00,Wunderground v.1.15,2013-03-13 12:18:00,
2013-03-13 08:24:00,28.2,23.7,30.00,NW,311,8.0,16.0,83,0.00,,,0.00,Wunderground v.1.15,2013-03-13 12:24:00,
2013-03-13 08:29:00,28.0,22.6,30.00,North,350,10.0,16.0,80,0.00,,,0.00,Wunderground v.1.15,2013-03-13 12:29:00,
2013-03-13 08:35:00,28.0,22.3,30.00,West,279,11.0,17.0,79,0.00,,,0.00,Wunderground v.1.15,2013-03-13 12:35:00,
2013-03-13 08:40:00,28.0,22.0,30.00,NW,308,9.0,15.0,78,0.00,,,0.00,Wunderground v.1.15,2013-03-13 12:40:00,
2013-03-13 08:45:00,28.0,21.7,30.01,WNW,290,9.0,15.0,77,0.00,,,0.00,Wunderground v.1.15,2013-03-13 12:45:00,
2013-03-13 08:51:00,28.1,21.5,30.01,WNW,290,11.0,14.0,76,0.00,,,0.00,Wunderground v.1.15,2013-03-13 12:51:00,
2013-03-13 08:57:00,28.1,21.5,30.01,WNW,299,12.0,17.0,76,0.00,,,0.00,Wunderground v.1.15,2013-03-13 12:57:00,
2013-03-13 09:02:00,28.2,21.6,30.01,WNW,290,9.0,14.0,76,0.00,,,0.00,Wunderground v.1.15,2013-03-13 13:02:00,
2013-03-13 09:08:00,28.1,21.2,30.02,NW,321,9.0,15.0,75,0.00,,,0.00,Wunderground v.1.15,2013-03-13 13:08:00,
2013-03-13 09:13:00,28.0,21.4,30.02,WNW,294,8.0,10.0,76,0.00,,,0.00,Wunderground v.1.15,2013-03-13 13:13:00,
2013-03-13 09:18:00,28.3,21.4,30.02,West,268,9.0,16.0,75,0.00,,,0.00,Wunderground v.1.15,2013-03-13 13:18:00,
2013-03-13 09:24:00,28.3,21.4,30.03,WNW,300,12.0,12.0,75,0.00,,,0.00,Wunderground v.1.15,2013-03-13 13:24:00,
2013-03-13 09:29:00,28.1,21.2,30.03,NNW,337,10.0,15.0,75,0.00,,,0.00,Wunderground v.1.15,2013-03-13 13:29:00,
2013-03-13 09:34:00,28.1,21.5,30.03,West,281,8.0,10.0,76,0.00,,,0.00,Wunderground v.1.15,2013-03-13 13:34:00,
2013-03-13 09:40:00,28.0,21.1,30.03,WNW,287,8.0,10.0,75,0.00,,,0.00,Wunderground v.1.15,2013-03-13 13:40:00,
2013-03-13 09:46:00,28.1,21.5,30.03,West,273,10.0,14.0,76,0.00,,,0.00,Wunderground v.1.15,2013-03-13 13:46:00,
2013-03-13 09:52:00,28.3,21.4,30.04,WNW,300,10.0,16.0,75,0.00,,,0.00,Wunderground v.1.15,2013-03-13 13:52:00,
2013-03-13 09:58:00,28.5,21.9,30.04,WNW,283,12.0,16.0,76,0.00,,,0.00,Wunderground v.1.15,2013-03-13 13:58:00,
2013-03-13 10:04:00,28.6,21.7,30.04,NW,313,9.0,13.0,75,0.00,,,0.00,Wunderground v.1.15,2013-03-13 14:04:00,
2013-03-13 10:09:00,28.3,21.1,30.04,WNW,290,10.0,18.0,74,0.00,,,0.00,Wunderground v.1.15,2013-03-13 14:09:00,
2013-03-13 10:15:00,28.1,21.2,30.05,WSW,254,11.0,12.0,75,0.00,,,0.00,Wunderground v.1.15,2013-03-13 14:15:00,
2013-03-13 10:20:00,28.0,21.1,30.05,West,272,10.0,10.0,75,0.00,,,0.00,Wunderground v.1.15,2013-03-13 14:20:00,
2013-03-13 10:25:00,28.0,21.4,30.05,West,279,8.0,16.0,76,0.00,,,0.00,Wunderground v.1.15,2013-03-13 14:25:00,
2013-03-13 10:31:00,28.1,21.5,30.06,WSW,258,8.0,15.0,76,0.00,,,0.00,Wunderground v.1.15,2013-03-13 14:31:00,
2013-03-13 10:37:00,28.4,21.8,30.06,NW,310,9.0,15.0,76,0.00,,,0.00,Wunderground v.1.15,2013-03-13 14:37:00,
2013-03-13 10:43:00,28.3,21.4,30.06,West,261,9.0,14.0,75,0.00,,,0.00,Wunderground v.1.15,2013-03-13 14:43:00,
2013-03-13 10:48:00,28.2,21.6,30.06,West,276,8.0,14.0,76,0.00,,,0.00,Wunderground v.1.15,2013-03-13 14:48:00,
2013-03-13 10:53:00,28.1,21.5,30.06,WNW,284,8.0,14.0,76,0.00,,,0.00,Wunderground v.1.15,2013-03-13 14:53:00,
2013-03-13 10:58:00,28.0,21.4,30.07,West,276,10.0,14.0,76,0.00,,,0.00,Wunderground v.1.15,2013-03-13 14:58:00,
2013-03-13 11:04:00,28.0,21.4,30.07,West,263,11.0,14.0,76,0.00,,,0.00,Wunderground v.1.15,2013-03-13 15:04:00,
2013-03-13 11:09:00,28.1,21.8,30.07,NW,304,9.0,14.0,77,0.00,,,0.00,Wunderground v.1.15,2013-03-13 15:09:00,
2013-03-13 11:14:00,28.3,22.0,30.07,WNW,287,6.0,16.0,77,0.00,,,0.00,Wunderground v.1.15,2013-03-13 15:14:00,
2013-03-13 11:20:00,28.3,21.7,30.07,West,274,7.0,7.0,76,0.00,,,0.00,Wunderground v.1.15,2013-03-13 15:20:00,
2013-03-13 11:25:00,28.4,21.8,30.07,West,261,9.0,13.0,76,0.00,,,0.00,Wunderground v.1.15,2013-03-13 15:25:00,
2013-03-13 11:30:00,28.5,21.9,30.07,NW,304,9.0,15.0,76,0.00,,,0.00,Wunderground v.1.15,2013-03-13 15:30:00,
2013-03-13 11:37:00,28.6,22.0,30.08,West,268,10.0,15.0,76,0.00,,,0.00,Wunderground v.1.15,2013-03-13 15:37:00,
2013-03-13 11:42:00,28.7,21.8,30.08,West,279,8.0,16.0,75,0.00,,,0.00,Wunderground v.1.15,2013-03-13 15:42:00,
2013-03-13 11:48:00,28.5,21.6,30.08,NW,319,11.0,16.0,75,0.00,,,0.00,Wunderground v.1.15,2013-03-13 15:48:00,
2013-03-13 11:54:00,28.6,21.7,30.08,West,272,12.0,14.0,75,0.00,,,0.00,Wunderground v.1.15,2013-03-13 15:54:00,
2013-03-13 11:59:00,28.8,21.9,30.08,NW,322,11.0,16.0,75,0.00,,,0.00,Wunderground v.1.15,2013-03-13 15:59:00,
2013-03-13 12:04:00,29.7,22.7,30.08,West,265,10.0,11.0,75,0.00,,,0.00,Wunderground v.1.15,2013-03-13 16:04:00,
2013-03-13 12:10:00,29.3,22.0,30.09,WNW,295,12.0,15.0,74,0.00,,,0.00,Wunderground v.1.15,2013-03-13 16:10:00,
2013-03-13 12:15:00,29.2,21.9,30.09,West,281,11.0,18.0,74,0.00,,,0.00,Wunderground v.1.15,2013-03-13 16:15:00,
2013-03-13 12:21:00,30.0,23.0,30.09,NW,304,8.0,14.0,75,0.00,,,0.00,Wunderground v.1.15,2013-03-13 16:21:00,
2013-03-13 12:26:00,29.4,22.8,30.10,North,355,11.0,18.0,76,0.00,,,0.00,Wunderground v.1.15,2013-03-13 16:26:00,
2013-03-13 12:32:00,28.4,22.7,30.09,West,273,12.0,19.0,79,0.00,,,0.00,Wunderground v.1.15,2013-03-13 16:32:00,
2013-03-13 12:37:00,28.5,22.8,30.09,WNW,294,10.0,19.0,79,0.00,,,0.00,Wunderground v.1.15,2013-03-13 16:37:00,
2013-03-13 12:42:00,29.2,23.5,30.09,NNW,327,11.0,19.0,79,0.00,,,0.00,Wunderground v.1.15,2013-03-13 16:42:00,
2013-03-13 12:48:00,29.9,23.3,30.09,WSW,258,11.0,19.0,76,0.00,,,0.00,Wunderground v.1.15,2013-03-13 16:48:00,
2013-03-13 12:53:00,29.6,22.6,30.10,WNW,294,11.0,16.0,75,0.00,,,0.00,Wunderground v.1.15,2013-03-13 16:53:00,
2013-03-13 12:59:00,29.2,22.9,30.10,WSW,254,10.0,16.0,77,0.00,,,0.00,Wunderground v.1.15,2013-03-13 16:59:00,
2013-03-13 13:04:00,29.0,23.0,30.10,WNW,282,9.0,12.0,78,0.00,,,0.00,Wunderground v.1.15,2013-03-13 17:04:00,
2013-03-13 13:09:00,28.8,23.4,30.11,WNW,284,11.0,15.0,80,0.00,,,0.00,Wunderground v.1.15,2013-03-13 17:09:00,
2013-03-13 13:15:00,28.9,23.8,30.11,West,273,13.0,20.0,81,0.00,,,0.00,Wunderground v.1.15,2013-03-13 17:15:00,
2013-03-13 13:20:00,29.0,23.9,30.11,WNW,296,13.0,16.0,81,0.00,,,0.00,Wunderground v.1.15,2013-03-13 17:20:00,
2013-03-13 13:25:00,28.3,23.5,30.11,West,269,14.0,17.0,82,0.00,,,0.00,Wunderground v.1.15,2013-03-13 17:25:00,
2013-03-13 13:31:00,28.1,23.3,30.11,WNW,294,12.0,13.0,82,0.00,,,0.00,Wunderground v.1.15,2013-03-13 17:31:00,
2013-03-13 13:36:00,28.8,22.8,30.11,NNW,332,11.0,15.0,78,0.00,,,0.00,Wunderground v.1.15,2013-03-13 17:36:00,
2013-03-13 13:41:00,29.6,22.6,30.11,WNW,284,11.0,15.0,75,0.00,,,0.00,Wunderground v.1.15,2013-03-13 17:41:00,
2013-03-13 13:47:00,31.3,24.6,30.11,West,276,10.0,15.0,76,0.00,,,0.00,Wunderground v.1.15,2013-03-13 17:47:00,
2013-03-13 13:52:00,32.2,24.2,30.10,WNW,284,11.0,16.0,72,0.00,,,0.00,Wunderground v.1.15,2013-03-13 17:52:00,
2013-03-13 13:58:00,31.8,22.8,30.11,West,271,14.0,20.0,69,0.00,,,0.00,Wunderground v.1.15,2013-03-13 17:58:00,
2013-03-13 14:04:00,31.4,22.4,30.11,WNW,295,12.0,22.0,69,0.00,,,0.00,Wunderground v.1.15,2013-03-13 18:04:00,
2013-03-13 14:09:00,31.2,22.5,30.11,WNW,288,11.0,22.0,70,0.00,,,0.00,Wunderground v.1.15,2013-03-13 18:09:00,
2013-03-13 14:15:00,30.3,23.6,30.11,NNW,327,10.0,12.0,76,0.00,,,0.00,Wunderground v.1.15,2013-03-13 18:15:00,
2013-03-13 14:20:00,29.5,23.5,30.12,NW,309,9.0,9.0,78,0.00,,,0.00,Wunderground v.1.15,2013-03-13 18:20:00,
2013-03-13 14:25:00,28.8,23.4,30.12,WNW,289,8.0,12.0,80,0.00,,,0.00,Wunderground v.1.15,2013-03-13 18:25:00,
2013-03-13 14:30:00,28.8,24.0,30.12,WNW,298,7.0,7.0,82,0.00,,,0.00,Wunderground v.1.15,2013-03-13 18:30:00,
2013-03-13 14:36:00,28.9,24.4,30.12,NNW,331,4.0,7.0,83,0.00,,,0.00,Wunderground v.1.15,2013-03-13 18:36:00,
2013-03-13 14:42:00,29.2,24.7,30.12,WNW,288,3.0,4.0,83,0.00,,,0.00,Wunderground v.1.15,2013-03-13 18:42:00,
2013-03-13 14:47:00,29.5,24.7,30.11,NW,306,4.0,5.0,82,0.00,,,0.00,Wunderground v.1.15,2013-03-13 18:47:00,
2013-03-13 14:53:00,29.2,23.8,30.12,NNW,346,6.0,17.0,80,0.00,,,0.00,Wunderground v.1.15,2013-03-13 18:53:00,
2013-03-13 14:58:00,28.4,23.9,30.12,West,267,10.0,17.0,83,0.00,,,0.00,Wunderground v.1.15,2013-03-13 18:58:00,
2013-03-13 15:04:00,27.7,23.2,30.13,NW,311,11.0,16.0,83,0.00,,,0.00,Wunderground v.1.15,2013-03-13 19:04:00,
2013-03-13 15:09:00,27.5,23.6,30.12,NW,323,9.0,16.0,85,0.00,,,0.00,Wunderground v.1.15,2013-03-13 19:09:00,
2013-03-13 15:15:00,28.1,24.2,30.12,SW,236,8.0,12.0,85,0.00,,,0.00,Wunderground v.1.15,2013-03-13 19:15:00,
2013-03-13 15:20:00,28.8,24.6,30.12,WNW,293,7.0,16.0,84,0.00,,,0.00,Wunderground v.1.15,2013-03-13 19:20:00,
2013-03-13 15:25:00,30.2,25.1,30.11,WNW,283,9.0,16.0,81,0.00,,,0.00,Wunderground v.1.15,2013-03-13 19:25:00,
2013-03-13 15:32:00,31.3,23.3,30.12,WNW,295,10.0,15.0,72,0.00,,,0.00,Wunderground v.1.15,2013-03-13 19:32:00,
2013-03-13 15:38:00,30.9,21.2,30.12,WNW,284,14.0,18.0,67,0.00,,,0.00,Wunderground v.1.15,2013-03-13 19:38:00,
2013-03-13 15:43:00,30.7,21.7,30.12,WNW,298,14.0,22.0,69,0.00,,,0.00,Wunderground v.1.15,2013-03-13 19:43:00,
2013-03-13 15:49:00,30.0,22.1,30.13,West,275,13.0,22.0,72,0.00,,,0.00,Wunderground v.1.15,2013-03-13 19:49:00,
2013-03-13 15:54:00,30.1,22.5,30.13,WNW,289,10.0,13.0,73,0.00,,,0.00,Wunderground v.1.15,2013-03-13 19:54:00,
2013-03-13 16:00:00,30.4,22.1,30.13,NW,313,8.0,10.0,71,0.00,,,0.00,Wunderground v.1.15,2013-03-13 20:00:00,
2013-03-13 16:05:00,30.4,22.4,30.13,NNW,333,10.0,16.0,72,0.00,,,0.00,Wunderground v.1.15,2013-03-13 20:05:00,
2013-03-13 16:10:00,30.0,21.4,30.13,NW,310,13.0,13.0,70,0.00,,,0.00,Wunderground v.1.15,2013-03-13 20:10:00,
2013-03-13 16:17:00,29.3,21.4,30.14,West,274,14.0,20.0,72,0.00,,,0.00,Wunderground v.1.15,2013-03-13 20:17:00,
2013-03-13 16:23:00,29.2,21.0,30.14,West,271,11.0,16.0,71,0.00,,,0.00,Wunderground v.1.15,2013-03-13 20:23:00,
2013-03-13 16:28:00,29.6,20.7,30.14,WNW,295,11.0,21.0,69,0.00,,,0.00,Wunderground v.1.15,2013-03-13 20:28:00,
2013-03-13 16:33:00,30.0,20.7,30.14,WNW,300,12.0,15.0,68,0.00,,,0.00,Wunderground v.1.15,2013-03-13 20:33:00,
2013-03-13 16:39:00,30.2,20.6,30.14,NNW,332,11.0,15.0,67,0.00,,,0.00,Wunderground v.1.15,2013-03-13 20:39:00,
2013-03-13 16:44:00,30.2,20.9,30.14,West,271,10.0,12.0,68,0.00,,,0.00,Wunderground v.1.15,2013-03-13 20:44:00,
2013-03-13 16:49:00,30.1,21.2,30.15,West,261,11.0,21.0,69,0.00,,,0.00,Wunderground v.1.15,2013-03-13 20:49:00,
2013-03-13 16:55:00,29.9,21.3,30.15,WSW,246,11.0,14.0,70,0.00,,,0.00,Wunderground v.1.15,2013-03-13 20:55:00,
2013-03-13 17:01:00,29.5,21.3,30.16,WSW,241,10.0,13.0,71,0.00,,,0.00,Wunderground v.1.15,2013-03-13 21:01:00,
2013-03-13 17:07:00,29.2,21.9,30.16,WSW,256,12.0,13.0,74,0.00,,,0.00,Wunderground v.1.15,2013-03-13 21:07:00,
2013-03-13 17:12:00,29.3,22.4,30.16,WNW,284,10.0,13.0,75,0.00,,,0.00,Wunderground v.1.15,2013-03-13 21:12:00,
2013-03-13 17:18:00,29.6,21.3,30.16,NNW,334,9.0,13.0,71,0.00,,,0.00,Wunderground v.1.15,2013-03-13 21:18:00,
2013-03-13 17:23:00,30.0,21.1,30.16,West,281,10.0,11.0,69,0.00,,,0.00,Wunderground v.1.15,2013-03-13 21:23:00,
2013-03-13 17:28:00,30.0,21.1,30.17,WNW,292,12.0,13.0,69,0.00,,,0.00,Wunderground v.1.15,2013-03-13 21:28:00,
2013-03-13 17:34:00,29.5,20.6,30.17,NW,313,13.0,15.0,69,0.00,,,0.00,Wunderground v.1.15,2013-03-13 21:34:00,
2013-03-13 17:39:00,29.2,21.0,30.17,WNW,290,13.0,16.0,71,0.00,,,0.00,Wunderground v.1.15,2013-03-13 21:39:00,
2013-03-13 17:45:00,29.0,20.4,30.17,West,277,11.0,15.0,70,0.00,,,0.00,Wunderground v.1.15,2013-03-13 21:45:00,
2013-03-13 17:50:00,28.9,20.3,30.17,WNW,301,12.0,12.0,70,0.00,,,0.00,Wunderground v.1.15,2013-03-13 21:50:00,
2013-03-13 17:56:00,29.0,20.4,30.17,WNW,301,11.0,19.0,70,0.00,,,0.00,Wunderground v.1.15,2013-03-13 21:56:00,
2013-03-13 18:01:00,28.9,20.0,30.18,West,272,11.0,14.0,69,0.00,,,0.00,Wunderground v.1.15,2013-03-13 22:01:00,
2013-03-13 18:07:00,28.9,20.0,30.18,West,273,11.0,16.0,69,0.00,,,0.00,Wunderground v.1.15,2013-03-13 22:07:00,
2013-03-13 18:13:00,28.8,19.9,30.18,WNW,282,11.0,13.0,69,0.00,,,0.00,Wunderground v.1.15,2013-03-13 22:13:00,
2013-03-13 18:18:00,28.6,19.7,30.18,West,269,12.0,22.0,69,0.00,,,0.00,Wunderground v.1.15,2013-03-13 22:18:00,
2013-03-13 18:24:00,28.5,20.0,30.18,WNW,291,12.0,12.0,70,0.00,,,0.00,Wunderground v.1.15,2013-03-13 22:24:00,
2013-03-13 18:29:00,28.4,19.9,30.19,WSW,238,11.0,13.0,70,0.00,,,0.00,Wunderground v.1.15,2013-03-13 22:29:00,
2013-03-13 18:35:00,28.3,19.8,30.19,WNW,283,10.0,17.0,70,0.00,,,0.00,Wunderground v.1.15,2013-03-13 22:35:00,
2013-03-13 18:40:00,28.1,18.5,30.19,West,278,12.0,14.0,67,0.00,,,0.00,Wunderground v.1.15,2013-03-13 22:40:00,
2013-03-13 18:45:00,28.0,18.8,30.19,West,271,12.0,21.0,68,0.00,,,0.00,Wunderground v.1.15,2013-03-13 22:45:00,
2013-03-13 18:51:00,27.8,20.3,30.20,West,275,11.0,12.0,73,0.00,,,0.00,Wunderground v.1.15,2013-03-13 22:51:00,
2013-03-13 18:57:00,27.1,21.2,30.20,West,267,8.0,12.0,78,0.00,,,0.00,Wunderground v.1.15,2013-03-13 22:57:00,
2013-03-13 19:02:00,26.6,21.3,30.20,West,265,7.0,13.0,80,0.00,,,0.00,Wunderground v.1.15,2013-03-13 23:02:00,
2013-03-13 19:08:00,26.4,21.1,30.20,WNW,292,7.0,13.0,80,0.00,,,0.00,Wunderground v.1.15,2013-03-13 23:08:00,
2013-03-13 19:13:00,26.5,20.9,30.20,WNW,287,8.0,16.0,79,0.00,,,0.00,Wunderground v.1.15,2013-03-13 23:13:00,
2013-03-13 19:18:00,26.6,22.7,30.20,WNW,293,9.0,17.0,85,0.00,,,0.00,Wunderground v.1.15,2013-03-13 23:18:00,
2013-03-13 19:23:00,26.8,20.6,30.20,WNW,302,8.0,13.0,77,0.00,,,0.00,Wunderground v.1.15,2013-03-13 23:23:00,
2013-03-13 19:29:00,26.9,20.3,30.20,West,275,8.0,16.0,76,0.00,,,0.00,Wunderground v.1.15,2013-03-13 23:29:00,
2013-03-13 19:34:00,27.1,20.2,30.21,WNW,291,7.0,12.0,75,0.00,,,0.00,Wunderground v.1.15,2013-03-13 23:34:00,
2013-03-13 19:39:00,27.2,20.0,30.21,West,277,8.0,16.0,74,0.00,,,0.00,Wunderground v.1.15,2013-03-13 23:39:00,
2013-03-13 19:45:00,27.2,19.4,30.21,WNW,290,11.0,19.0,72,0.00,,,0.00,Wunderground v.1.15,2013-03-13 23:45:00,
2013-03-13 19:50:00,27.2,19.4,30.21,WNW,296,12.0,12.0,72,0.00,,,0.00,Wunderground v.1.15,2013-03-13 23:50:00,
2013-03-13 19:56:00,27.2,19.4,30.21,WNW,291,10.0,12.0,72,0.00,,,0.00,Wunderground v.1.15,2013-03-13 23:56:00,
2013-03-13 20:02:00,27.2,19.7,30.21,WNW,298,9.0,11.0,73,0.00,,,0.00,Wunderground v.1.15,2013-03-14 00:02:00,
2013-03-13 20:07:00,27.0,19.5,30.22,West,279,10.0,11.0,73,0.00,,,0.00,Wunderground v.1.15,2013-03-14 00:07:00,
2013-03-13 20:13:00,27.0,19.5,30.22,WNW,298,8.0,13.0,73,0.00,,,0.00,Wunderground v.1.15,2013-03-14 00:13:00,
2013-03-13 20:18:00,27.0,19.5,30.22,West,271,8.0,13.0,73,0.00,,,0.00,Wunderground v.1.15,2013-03-14 00:18:00,
2013-03-13 20:24:00,27.0,19.5,30.22,WNW,295,10.0,15.0,73,0.00,,,0.00,Wunderground v.1.15,2013-03-14 00:24:00,
2013-03-13 20:29:00,27.0,19.5,30.22,NW,304,9.0,15.0,73,0.00,,,0.00,Wunderground v.1.15,2013-03-14 00:29:00,
2013-03-13 20:34:00,26.9,19.7,30.22,West,281,7.0,14.0,74,0.00,,,0.00,Wunderground v.1.15,2013-03-14 00:34:00,
2013-03-13 20:40:00,26.9,19.7,30.22,West,268,8.0,11.0,74,0.00,,,0.00,Wunderground v.1.15,2013-03-14 00:40:00,
2013-03-13 20:45:00,26.8,19.6,30.22,West,281,8.0,13.0,74,0.00,,,0.00,Wunderground v.1.15,2013-03-14 00:45:00,
2013-03-13 20:51:00,26.7,19.2,30.23,WNW,292,7.0,12.0,73,0.00,,,0.00,Wunderground v.1.15,2013-03-14 00:51:00,
2013-03-13 20:57:00,26.7,18.9,30.23,WNW,289,8.0,13.0,72,0.00,,,0.00,Wunderground v.1.15,2013-03-14 00:57:00,
2013-03-13 21:02:00,26.7,19.2,30.23,WNW,283,9.0,13.0,73,0.00,,,0.00,Wunderground v.1.15,2013-03-14 01:02:00,
2013-03-13 21:08:00,26.7,19.2,30.23,West,277,9.0,14.0,73,0.00,,,0.00,Wunderground v.1.15,2013-03-14 01:08:00,
2013-03-13 21:13:00,26.7,19.2,30.23,NW,309,9.0,10.0,73,0.00,,,0.00,Wunderground v.1.15,2013-03-14 01:13:00,
2013-03-13 21:18:00,26.7,18.9,30.23,NNW,338,9.0,14.0,72,0.00,,,0.00,Wunderground v.1.15,2013-03-14 01:18:00,
2013-03-13 21:24:00,26.7,18.9,30.23,West,266,11.0,17.0,72,0.00,,,0.00,Wunderground v.1.15,2013-03-14 01:24:00,
2013-03-13 21:29:00,26.7,18.9,30.23,NW,325,10.0,17.0,72,0.00,,,0.00,Wunderground v.1.15,2013-03-14 01:29:00,
2013-03-13 21:34:00,26.7,19.2,30.23,West,280,8.0,12.0,73,0.00,,,0.00,Wunderground v.1.15,2013-03-14 01:34:00,
2013-03-13 21:40:00,26.7,19.2,30.23,WNW,300,8.0,8.0,73,0.00,,,0.00,Wunderground v.1.15,2013-03-14 01:40:00,
2013-03-13 21:45:00,26.7,18.9,30.23,West,265,8.0,9.0,72,0.00,,,0.00,Wunderground v.1.15,2013-03-14 01:45:00,
2013-03-13 21:51:00,26.7,19.2,30.23,NW,312,9.0,11.0,73,0.00,,,0.00,Wunderground v.1.15,2013-03-14 01:51:00,
2013-03-13 21:56:00,26.7,19.2,30.24,WNW,296,9.0,14.0,73,0.00,,,0.00,Wunderground v.1.15,2013-03-14 01:56:00,
2013-03-13 22:02:00,26.6,19.4,30.24,WNW,292,8.0,13.0,74,0.00,,,0.00,Wunderground v.1.15,2013-03-14 02:02:00,
2013-03-13 22:07:00,26.6,19.4,30.24,NNW,338,8.0,13.0,74,0.00,,,0.00,Wunderground v.1.15,2013-03-14 02:07:00,
2013-03-13 22:13:00,26.5,20.0,30.24,NW,325,8.0,11.0,76,0.00,,,0.00,Wunderground v.1.15,2013-03-14 02:13:00,
2013-03-13 22:18:00,26.3,20.4,30.24,NW,311,8.0,11.0,78,0.00,,,0.00,Wunderground v.1.15,2013-03-14 02:18:00,
2013-03-13 22:23:00,26.2,20.3,30.24,WNW,286,7.0,9.0,78,0.00,,,0.00,Wunderground v.1.15,2013-03-14 02:23:00,
2013-03-13 22:29:00,26.0,20.1,30.24,NW,315,6.0,12.0,78,0.00,,,0.00,Wunderground v.1.15,2013-03-14 02:29:00,
2013-03-13 22:35:00,26.0,19.8,30.25,NW,321,6.0,15.0,77,0.00,,,0.00,Wunderground v.1.15,2013-03-14 02:35:00,
2013-03-13 22:40:00,25.9,19.7,30.25,NW,315,6.0,17.0,77,0.00,,,0.00,Wunderground v.1.15,2013-03-14 02:40:00,
2013-03-13 22:45:00,25.9,19.7,30.25,WNW,293,7.0,17.0,77,0.00,,,0.00,Wunderground v.1.15,2013-03-14 02:45:00,
2013-03-13 22:51:00,25.9,19.7,30.25,West,269,6.0,7.0,77,0.00,,,0.00,Wunderground v.1.15,2013-03-14 02:51:00,
2013-03-13 22:56:00,25.9,19.7,30.25,WNW,283,7.0,14.0,77,0.00,,,0.00,Wunderground v.1.15,2013-03-14 02:56:00,
2013-03-13 23:01:00,25.8,19.6,30.25,WNW,300,8.0,8.0,77,0.00,,,0.00,Wunderground v.1.15,2013-03-14 03:01:00,
2013-03-13 23:07:00,25.8,19.6,30.26,WNW,288,7.0,15.0,77,0.00,,,0.00,Wunderground v.1.15,2013-03-14 03:07:00,
2013-03-13 23:12:00,25.8,19.6,30.26,WNW,283,7.0,9.0,77,0.00,,,0.00,Wunderground v.1.15,2013-03-14 03:12:00,
2013-03-13 23:18:00,25.8,19.3,30.26,NW,306,7.0,10.0,76,0.00,,,0.00,Wunderground v.1.15,2013-03-14 03:18:00,
2013-03-13 23:24:00,25.9,19.1,30.26,WNW,300,7.0,13.0,75,0.00,,,0.00,Wunderground v.1.15,2013-03-14 03:24:00,
2013-03-13 23:29:00,26.0,18.5,30.26,WNW,302,8.0,13.0,73,0.00,,,0.00,Wunderground v.1.15,2013-03-14 03:29:00,
2013-03-13 23:34:00,26.1,18.3,30.26,WNW,284,8.0,12.0,72,0.00,,,0.00,Wunderground v.1.15,2013-03-14 03:34:00,
2013-03-13 23:40:00,26.2,18.1,30.26,WNW,296,8.0,12.0,71,0.00,,,0.00,Wunderground v.1.15,2013-03-14 03:40:00,
2013-03-13 23:45:00,26.2,18.1,30.26,NW,310,10.0,17.0,71,0.00,,,0.00,Wunderground v.1.15,2013-03-14 03:45:00,
2013-03-13 23:51:00,26.2,18.1,30.26,WNW,296,6.0,7.0,71,0.00,,,0.00,Wunderground v.1.15,2013-03-14 03:51:00,
2013-03-13 23:57:00,26.1,18.0,30.26,NW,315,5.0,11.0,71,0.00,,,0.00,Wunderground v.1.15,2013-03-14 03:57:00,